MSC Claudia — 3FZA6 — position and weather

sailwx.info

Track history (hours):
 
Tides and Currents Weather Stations Pressure Air Temp Water Temp Dewpoint Dewpoint Depression Visibility Wind Speed Wind Dir Waves Ship Positions

MSC Claudia

Last reported at 2015-Apr-21 20:34 UTC. Time now 2015-Apr-21 21:01 UTC.
Position S 38°54' E 143°16'.

Length 292 m; draft 9.4 m.

Type: Ship (hazmat cat A). MMSI: 370606000.

Date/timePositionNaut miles runAvg speedWind from/ knotsBaromVisibWave heightAir tempDewpointWater temp
2015-Apr-21 20:34S 38°54' E 143°16'  
2015-Apr-19 12:10S 38°57' E 145°38'1118.7
2015-Apr-19 11:33S 39°02' E 145°52'1918.9
2015-Apr-19 10:33S 39°11' E 146°13'1818.0
2015-Apr-19 09:34S 39°08' E 146°36'1918.8
2015-Apr-19 08:34S 39°02' E 146°59'1818.2
2015-Apr-19 07:34S 38°56' E 147°21'5817.1
2015-Apr-19 04:08S 38°32' E 148°29'1017.8
2015-Apr-19 03:33S 38°26' E 148°40'1817.9
2015-Apr-19 02:34S 38°17' E 148°60'1817.7
2015-Apr-19 01:33S 38°08' E 149°19'1817.7
2015-Apr-19 00:33S 37°59' E 149°38'1717.2
2015-Apr-18 23:34S 37°49' E 149°57'2116.2
2015-Apr-18 22:16S 37°36' E 150°17'1217.3
2015-Apr-18 21:34S 37°24' E 150°21'1817.6
2015-Apr-18 20:33S 37°07' E 150°27'17018.6
2015-Apr-18 11:22S 34°23' E 151°22'1312.4
2015-Apr-18 10:19S 34°10' E 151°25'1 1.3
2015-Apr-18 09:13S 34°08' E 151°26'  
2015-Apr-15 09:34S 34°27' E 151°20'1 0.7
2015-Apr-15 08:27S 34°27' E 151°21'1 0.6
2015-Apr-15 07:30S 34°26' E 151°22'1 0.7
2015-Apr-15 06:33S 34°26' E 151°22'1 0.6
2015-Apr-15 05:15S 34°26' E 151°23'0 0.5
2015-Apr-15 04:33S 34°26' E 151°24'  
2015-Apr-12 06:33S 37°19' E 150°30'3110.2
2015-Apr-12 03:33S 37°44' E 150°09'1311.8
2015-Apr-12 02:29S 37°52' E 149°56'1112.0
2015-Apr-12 01:33S 37°58' E 149°44'5614.0
2015-Apr-11 21:33S 38°30' E 148°46'  
Track history (hours):
 
Tides and Currents Weather Stations Pressure Air Temp Water Temp Dewpoint Dewpoint Depression Visibility Wind Speed Wind Dir Waves Ship Positions

MSC Claudia

Last reported at 2015-Apr-21 20:34 UTC. Time now 2015-Apr-21 21:01 UTC.
Position S 38°54' E 143°16'.

Length 292 m; draft 9.4 m.

Type: Ship (hazmat cat A). MMSI: 370606000.

Date/timePositionNaut miles runAvg speedWind from/ knotsBaromVisibWave heightAir tempDewpointWater temp
2015-Apr-21 20:34S 38°54' E 143°16'  
2015-Apr-19 12:10S 38°57' E 145°38'1118.7
2015-Apr-19 11:33S 39°02' E 145°52'1918.9
2015-Apr-19 10:33S 39°11' E 146°13'1818.0
2015-Apr-19 09:34S 39°08' E 146°36'1918.8
2015-Apr-19 08:34S 39°02' E 146°59'1818.2
2015-Apr-19 07:34S 38°56' E 147°21'5817.1
2015-Apr-19 04:08S 38°32' E 148°29'1017.8
2015-Apr-19 03:33S 38°26' E 148°40'1817.9
2015-Apr-19 02:34S 38°17' E 148°60'1817.7
2015-Apr-19 01:33S 38°08' E 149°19'1817.7
2015-Apr-19 00:33S 37°59' E 149°38'1717.2
2015-Apr-18 23:34S 37°49' E 149°57'2116.2
2015-Apr-18 22:16S 37°36' E 150°17'1217.3
2015-Apr-18 21:34S 37°24' E 150°21'1817.6
2015-Apr-18 20:33S 37°07' E 150°27'17018.6
2015-Apr-18 11:22S 34°23' E 151°22'1312.4
2015-Apr-18 10:19S 34°10' E 151°25'1 1.3
2015-Apr-18 09:13S 34°08' E 151°26'  
2015-Apr-15 09:34S 34°27' E 151°20'1 0.7
2015-Apr-15 08:27S 34°27' E 151°21'1 0.6
2015-Apr-15 07:30S 34°26' E 151°22'1 0.7
2015-Apr-15 06:33S 34°26' E 151°22'1 0.6
2015-Apr-15 05:15S 34°26' E 151°23'0 0.5
2015-Apr-15 04:33S 34°26' E 151°24'  
2015-Apr-12 06:33S 37°19' E 150°30'3110.2
2015-Apr-12 03:33S 37°44' E 150°09'1311.8
2015-Apr-12 02:29S 37°52' E 149°56'1112.0
2015-Apr-12 01:33S 37°58' E 149°44'5614.0
2015-Apr-11 21:33S 38°30' E 148°46'  

Dump ship's entire track history